createdAt,value
2023-03-13T00:01:03.878Z,100
2023-03-13T00:02:11.037Z,100
2023-03-13T00:03:17.440Z,100
2023-03-13T00:04:24.608Z,100
2023-03-13T00:05:31.882Z,100
2023-03-13T00:06:38.844Z,100
2023-03-13T00:07:45.899Z,100
2023-03-13T00:08:52.466Z,100
2023-03-13T00:09:59.598Z,100
2023-03-13T00:11:06.830Z,100
2023-03-13T00:12:14.023Z,100
2023-03-13T00:13:20.436Z,100
2023-03-13T00:14:27.567Z,100
2023-03-13T00:15:34.700Z,100
2023-03-13T00:16:42.075Z,100
2023-03-13T00:17:48.867Z,100
2023-03-13T00:18:55.992Z,100
2023-03-13T00:20:02.639Z,100
2023-03-13T00:21:09.733Z,100
2023-03-13T00:22:16.831Z,100
2023-03-13T00:23:24.129Z,100
2023-03-13T00:24:31.037Z,100
2023-03-13T00:25:37.619Z,100
2023-03-13T00:26:44.770Z,100
2023-03-13T00:27:51.870Z,100
2023-03-13T00:28:58.773Z,100
2023-03-13T00:30:06.095Z,100
2023-03-13T00:31:12.777Z,100
2023-03-13T00:32:19.664Z,100
2023-03-13T00:33:26.778Z,100
2023-03-13T00:34:33.816Z,100
2023-03-13T00:35:41.168Z,100
2023-03-13T00:36:47.774Z,100
2023-03-13T00:37:54.844Z,100
2023-03-13T00:39:01.956Z,100
2023-03-13T00:40:08.800Z,100
2023-03-13T00:41:16.113Z,100
2023-03-13T00:42:22.604Z,100
2023-03-13T00:43:29.802Z,100
2023-03-13T00:44:36.917Z,100
2023-03-13T00:45:44.066Z,100
2023-03-13T00:46:51.046Z,100
2023-03-13T00:47:57.534Z,100
2023-03-13T00:49:04.769Z,100
2023-03-13T00:50:11.746Z,100
2023-03-13T00:51:18.856Z,100
2023-03-13T00:52:26.042Z,100
2023-03-13T00:53:32.549Z,100
2023-03-13T00:54:39.597Z,100
2023-03-13T00:55:47.451Z,100
2023-03-13T00:56:54.011Z,100
2023-03-13T00:58:01.134Z,100
2023-03-13T00:59:07.500Z,100
2023-03-13T01:00:14.765Z,100
2023-03-13T01:01:21.910Z,100
2023-03-13T01:02:28.922Z,100
2023-03-13T01:03:36.199Z,100
2023-03-13T01:04:42.703Z,100
2023-03-13T01:05:49.699Z,100
2023-03-13T01:06:56.818Z,100
2023-03-13T01:08:03.872Z,100
2023-03-13T01:09:10.941Z,100
2023-03-13T01:10:17.657Z,100
2023-03-13T01:11:24.822Z,100
2023-03-13T01:12:31.910Z,100
2023-03-13T01:13:38.904Z,100
2023-03-13T01:14:46.078Z,100
2023-03-13T01:15:52.713Z,100
2023-03-13T01:16:59.769Z,100
2023-03-13T01:18:06.819Z,100
2023-03-13T01:19:14.161Z,100
2023-03-13T01:20:21.051Z,100
2023-03-13T01:21:27.864Z,100
2023-03-13T01:22:35.293Z,100
2023-03-13T01:24:48.862Z,100
2023-03-13T01:25:56.242Z,100
2023-03-13T01:27:02.580Z,100
2023-03-13T01:28:09.824Z,100
2023-03-13T01:29:16.897Z,100
2023-03-13T01:30:23.872Z,100
2023-03-13T01:31:31.075Z,100
2023-03-13T01:32:37.730Z,100
2023-03-13T01:33:44.831Z,100
2023-03-13T01:34:51.799Z,100
2023-03-13T01:35:59.071Z,100
2023-03-13T01:37:06.616Z,100
2023-03-13T01:38:12.696Z,100
2023-03-13T01:39:19.675Z,100
2023-03-13T01:41:33.954Z,100
2023-03-13T01:42:40.472Z,100
2023-03-13T01:43:47.720Z,100
2023-03-13T01:44:54.869Z,100
2023-03-13T01:46:01.926Z,100
2023-03-13T01:47:09.128Z,100
2023-03-13T01:48:15.553Z,100
2023-03-13T01:49:22.700Z,100
2023-03-13T01:50:29.830Z,100
2023-03-13T01:51:36.981Z,100
2023-03-13T01:52:44.095Z,100
2023-03-13T01:53:50.633Z,100
2023-03-13T01:54:57.769Z,100
2023-03-13T01:56:04.848Z,100
2023-03-13T01:57:11.972Z,100
2023-03-13T01:58:19.149Z,100
2023-03-13T02:00:36.433Z,100
2023-03-13T02:01:40.048Z,100
2023-03-13T02:02:47.111Z,100
2023-03-13T02:03:54.187Z,100
2023-03-13T02:05:00.712Z,100
2023-03-13T02:06:07.784Z,100
2023-03-13T02:07:15.265Z,100
2023-03-13T02:08:21.852Z,100
2023-03-13T02:09:28.931Z,100
2023-03-13T02:10:35.761Z,100
2023-03-13T02:11:42.757Z,100
2023-03-13T02:12:50.036Z,100
2023-03-13T02:13:59.364Z,100
2023-03-13T02:15:03.949Z,100
2023-03-13T02:16:10.686Z,100
2023-03-13T02:17:17.617Z,100
2023-03-13T02:18:24.985Z,100
2023-03-13T02:19:32.067Z,100
2023-03-13T02:20:38.932Z,100
2023-03-13T02:21:45.688Z,100
2023-03-13T02:22:52.668Z,100
2023-03-13T02:23:59.932Z,100
2023-03-13T02:25:06.869Z,100
2023-03-13T02:26:14.309Z,100
2023-03-13T02:27:20.725Z,100
2023-03-13T02:28:27.689Z,100
2023-03-13T02:29:34.933Z,100
2023-03-13T02:30:41.869Z,100
2023-03-13T02:31:49.119Z,100
2023-03-13T02:32:55.839Z,100
2023-03-13T02:34:02.839Z,100
2023-03-13T02:35:09.985Z,100
2023-03-13T02:36:16.895Z,100
2023-03-13T02:37:23.985Z,100
2023-03-13T02:38:31.088Z,100
2023-03-13T02:39:37.644Z,100
2023-03-13T02:40:44.905Z,100
2023-03-13T02:41:51.909Z,100
2023-03-13T02:42:59.138Z,100
2023-03-13T02:45:12.710Z,100
2023-03-13T02:46:19.823Z,100
2023-03-13T02:47:27.198Z,100
2023-03-13T02:48:34.439Z,100
2023-03-13T02:49:40.910Z,100
2023-03-13T02:50:47.670Z,100
2023-03-13T02:53:02.288Z,100
2023-03-13T02:54:09.405Z,100
2023-03-13T02:55:15.618Z,100
2023-03-13T02:56:22.932Z,100
2023-03-13T02:57:29.780Z,100
2023-03-13T02:58:44.095Z,100
2023-03-13T02:59:44.025Z,100
2023-03-13T03:00:50.670Z,100
2023-03-13T03:01:57.938Z,100
2023-03-13T03:03:05.338Z,100
2023-03-13T03:04:12.226Z,100
2023-03-13T03:05:19.250Z,100
2023-03-13T03:06:25.910Z,100
2023-03-13T03:07:32.860Z,100
2023-03-13T03:08:40.161Z,100
2023-03-13T03:09:47.161Z,100
2023-03-13T03:10:54.299Z,100
2023-03-13T03:12:00.851Z,100
2023-03-13T03:13:07.902Z,100
2023-03-13T03:14:15.223Z,100
2023-03-13T03:15:22.140Z,100
2023-03-13T03:16:29.033Z,100
2023-03-13T03:17:35.651Z,100
2023-03-13T03:18:42.767Z,100
2023-03-13T03:19:49.960Z,100
2023-03-13T03:20:59.962Z,100
2023-03-13T03:22:04.251Z,100
2023-03-13T03:23:10.858Z,100
2023-03-13T03:24:17.849Z,100
2023-03-13T03:25:25.021Z,100
2023-03-13T03:26:32.263Z,100
2023-03-13T03:27:39.188Z,100
2023-03-13T03:28:45.677Z,100
2023-03-13T03:29:52.725Z,100
2023-03-13T03:31:00.032Z,100
2023-03-13T03:32:07.270Z,100
2023-03-13T03:33:14.249Z,100
2023-03-13T03:34:20.617Z,100
2023-03-13T03:35:27.878Z,100
2023-03-13T03:36:35.153Z,100
2023-03-13T03:37:42.272Z,100
2023-03-13T03:38:48.582Z,100
2023-03-13T03:39:55.657Z,100
2023-03-13T03:41:02.769Z,100
2023-03-13T03:42:10.137Z,100
2023-03-13T03:43:17.659Z,100
2023-03-13T03:44:23.723Z,100
2023-03-13T03:45:30.866Z,100
2023-03-13T03:46:37.824Z,100
2023-03-13T03:48:52.148Z,100
2023-03-13T03:49:58.720Z,100
2023-03-13T03:51:05.677Z,100
2023-03-13T03:52:12.991Z,100
2023-03-13T03:53:20.132Z,100
2023-03-13T03:54:27.206Z,100
2023-03-13T03:55:35.103Z,100
2023-03-13T03:56:40.957Z,100
2023-03-13T03:57:48.257Z,100
2023-03-13T03:58:55.168Z,100
2023-03-13T04:00:02.290Z,100
2023-03-13T04:01:08.548Z,100
2023-03-13T04:02:15.950Z,100
2023-03-13T04:03:23.047Z,100
2023-03-13T04:04:30.139Z,100
2023-03-13T04:05:37.119Z,100
2023-03-13T04:06:44.083Z,100
2023-03-13T04:07:50.671Z,100
2023-03-13T04:08:57.934Z,100
2023-03-13T04:10:05.020Z,100
2023-03-13T04:11:12.218Z,100
2023-03-13T04:12:18.778Z,100
2023-03-13T04:13:25.969Z,100
2023-03-13T04:14:33.251Z,100
2023-03-13T04:15:40.055Z,100
2023-03-13T04:16:47.350Z,100
2023-03-13T04:17:53.630Z,100
2023-03-13T04:19:00.955Z,100
2023-03-13T04:21:15.183Z,100
2023-03-13T04:22:22.253Z,100
2023-03-13T04:23:28.633Z,100
2023-03-13T04:24:35.850Z,100
2023-03-13T04:25:43.013Z,100
2023-03-13T04:26:50.102Z,100
2023-03-13T04:27:57.208Z,100
2023-03-13T04:29:03.814Z,100
2023-03-13T04:30:10.707Z,100
2023-03-13T04:31:17.846Z,100
2023-03-13T04:32:25.324Z,100
2023-03-13T04:33:32.270Z,100
2023-03-13T04:34:38.849Z,100
2023-03-13T04:35:46.114Z,100
2023-03-13T04:36:52.863Z,100
2023-03-13T04:38:00.064Z,100
2023-03-13T04:39:07.296Z,100
2023-03-13T04:40:13.797Z,100
2023-03-13T04:41:20.722Z,100
2023-03-13T04:42:28.105Z,100
2023-03-13T04:43:35.163Z,100
2023-03-13T04:44:43.664Z,100
2023-03-13T04:45:48.712Z,100
2023-03-13T04:46:55.774Z,100
2023-03-13T04:48:03.065Z,100
2023-03-13T04:49:10.146Z,100
2023-03-13T04:50:17.247Z,100
2023-03-13T04:52:30.743Z,100
2023-03-13T04:53:38.155Z,100
2023-03-13T04:54:45.069Z,100
2023-03-13T04:55:52.234Z,100
2023-03-13T04:56:58.829Z,100
2023-03-13T04:58:06.088Z,100
2023-03-13T04:59:13.096Z,100
2023-03-13T05:00:20.128Z,100
2023-03-13T05:01:27.340Z,100
2023-03-13T05:02:33.270Z,100
2023-03-13T05:03:40.978Z,100
2023-03-13T05:04:48.067Z,100
2023-03-13T05:05:54.962Z,100
2023-03-13T05:07:02.254Z,100
2023-03-13T05:08:08.996Z,100
2023-03-13T05:09:15.994Z,100
2023-03-13T05:10:23.526Z,100
2023-03-13T05:11:30.181Z,100
2023-03-13T05:12:37.242Z,100
2023-03-13T05:13:43.737Z,100
2023-03-13T05:14:50.786Z,100
2023-03-13T05:15:58.124Z,100
2023-03-13T05:17:05.123Z,100
2023-03-13T05:18:12.193Z,100
2023-03-13T05:19:18.932Z,100
2023-03-13T05:20:25.902Z,100
2023-03-13T05:21:33.083Z,100
2023-03-13T05:22:40.008Z,100
2023-03-13T05:23:47.223Z,100
2023-03-13T05:24:53.818Z,100
2023-03-13T05:26:00.938Z,100
2023-03-13T05:27:08.155Z,100
2023-03-13T05:28:15.191Z,100
2023-03-13T05:29:21.772Z,100
2023-03-13T05:30:28.836Z,100
2023-03-13T05:31:35.781Z,100
2023-03-13T05:32:43.139Z,100
2023-03-13T05:33:50.022Z,100
2023-03-13T05:34:56.618Z,100
2023-03-13T05:36:03.933Z,100
2023-03-13T05:37:11.107Z,100
2023-03-13T05:38:18.060Z,100
2023-03-13T05:39:25.036Z,100
2023-03-13T05:40:31.770Z,100
2023-03-13T05:41:38.768Z,100
2023-03-13T05:42:46.184Z,100
2023-03-13T05:43:52.643Z,100
2023-03-13T05:43:53.072Z,100
2023-03-13T05:45:00.183Z,100
2023-03-13T05:46:06.805Z,100
2023-03-13T05:47:13.855Z,100
2023-03-13T05:49:27.992Z,100
2023-03-13T05:50:35.169Z,100
2023-03-13T05:51:41.976Z,100
2023-03-13T05:52:48.740Z,100
2023-03-13T05:53:56.001Z,100
2023-03-13T05:56:10.141Z,100
2023-03-13T05:57:16.763Z,100
2023-03-13T05:58:23.998Z,100
2023-03-13T05:59:30.834Z,100
2023-03-13T06:00:38.165Z,100
2023-03-13T06:01:45.491Z,100
2023-03-13T06:02:51.808Z,100
2023-03-13T06:03:58.921Z,100
2023-03-13T06:05:06.176Z,100
2023-03-13T06:06:13.098Z,100
2023-03-13T06:07:20.316Z,100
2023-03-13T06:08:26.966Z,100
2023-03-13T06:09:33.899Z,100
2023-03-13T06:10:40.989Z,100
2023-03-13T06:11:47.945Z,100
2023-03-13T06:12:55.282Z,100
2023-03-13T06:14:02.441Z,100
2023-03-13T06:15:10.624Z,100
2023-03-13T06:16:16.033Z,100
2023-03-13T06:17:23.080Z,99
2023-03-13T06:18:30.485Z,100
2023-03-13T06:19:36.670Z,99
2023-03-13T06:20:43.978Z,100
2023-03-13T06:21:50.994Z,100
2023-03-13T06:22:58.276Z,100
2023-03-13T06:24:05.249Z,100
2023-03-13T06:26:18.936Z,100
2023-03-13T06:27:25.886Z,100
2023-03-13T06:28:33.032Z,99
2023-03-13T06:29:40.085Z,100
2023-03-13T06:30:46.698Z,99
2023-03-13T06:31:54.058Z,100
2023-03-13T06:33:01.156Z,99
2023-03-13T06:34:08.200Z,99
2023-03-13T06:35:15.114Z,99
2023-03-13T06:36:21.841Z,99
2023-03-13T06:37:28.948Z,99
2023-03-13T06:38:36.118Z,99
2023-03-13T06:39:43.182Z,99
2023-03-13T06:40:50.360Z,99
2023-03-13T06:41:56.916Z,99
2023-03-13T06:43:04.045Z,99
2023-03-13T06:44:10.946Z,99
2023-03-13T06:45:17.988Z,99
2023-03-13T06:46:25.417Z,99
2023-03-13T06:47:32.004Z,99
2023-03-13T06:48:38.979Z,99
2023-03-13T06:49:46.116Z,99
2023-03-13T06:50:53.256Z,99
2023-03-13T06:52:00.185Z,99
2023-03-13T06:53:06.716Z,99
2023-03-13T06:54:13.835Z,99
2023-03-13T06:55:21.156Z,99
2023-03-13T06:56:28.293Z,99
2023-03-13T06:57:35.337Z,99
2023-03-13T06:59:49.050Z,99
2023-03-13T07:00:56.181Z,99
2023-03-13T07:02:03.036Z,99
2023-03-13T07:03:10.172Z,99
2023-03-13T07:04:16.847Z,99
2023-03-13T07:05:23.964Z,99
2023-03-13T07:07:38.019Z,99
2023-03-13T07:08:45.319Z,99
2023-03-13T07:09:51.869Z,99
2023-03-13T07:10:59.783Z,99
2023-03-13T07:12:05.971Z,99
2023-03-13T07:13:13.323Z,99
2023-03-13T07:14:20.149Z,99
2023-03-13T07:15:26.917Z,99
2023-03-13T07:16:34.088Z,99
2023-03-13T07:17:41.737Z,99
2023-03-13T07:18:48.258Z,99
2023-03-13T07:19:55.474Z,99
2023-03-13T07:21:02.138Z,99
2023-03-13T07:22:09.039Z,99
2023-03-13T07:23:16.178Z,99
2023-03-13T07:24:23.201Z,99
2023-03-13T07:25:30.305Z,99
2023-03-13T07:26:36.973Z,99
2023-03-13T07:27:44.075Z,99
2023-03-13T07:28:51.225Z,99
2023-03-13T07:29:58.263Z,99
2023-03-13T07:31:05.391Z,99
2023-03-13T07:32:11.769Z,99
2023-03-13T07:33:19.109Z,99
2023-03-13T07:34:25.989Z,99
2023-03-13T07:35:33.237Z,99
2023-03-13T07:36:40.281Z,99
2023-03-13T07:37:47.017Z,99
2023-03-13T07:38:53.881Z,99
2023-03-13T07:40:01.006Z,99
2023-03-13T07:41:08.240Z,99
2023-03-13T07:42:15.426Z,99
2023-03-13T07:43:22.020Z,99
2023-03-13T07:44:29.098Z,99
2023-03-13T07:45:36.211Z,99
2023-03-13T07:46:43.122Z,99
2023-03-13T07:47:49.677Z,99
2023-03-13T07:48:56.838Z,99
2023-03-13T07:50:04.021Z,99
2023-03-13T07:51:11.319Z,99
2023-03-13T07:52:18.194Z,99
2023-03-13T07:53:26.198Z,99
2023-03-13T07:54:31.787Z,99
2023-03-13T07:55:38.994Z,99
2023-03-13T07:56:46.213Z,99
2023-03-13T07:57:53.258Z,99
2023-03-13T07:59:00.366Z,99
2023-03-13T08:00:06.950Z,99
2023-03-13T08:01:14.168Z,99
2023-03-13T08:03:28.374Z,99
2023-03-13T08:04:35.550Z,99
2023-03-13T08:05:42.030Z,99
2023-03-13T08:06:49.091Z,99
2023-03-13T08:07:56.232Z,99
2023-03-13T08:09:03.382Z,99
2023-03-13T08:10:10.276Z,99
2023-03-13T08:11:17.008Z,99
2023-03-13T08:12:23.946Z,99
2023-03-13T08:13:31.199Z,99
2023-03-13T08:14:38.259Z,99
2023-03-13T08:15:45.011Z,99
2023-03-13T08:16:52.118Z,99
2023-03-13T08:17:59.101Z,99
2023-03-13T08:19:06.361Z,99
2023-03-13T08:21:20.256Z,99
2023-03-13T08:21:32.042Z,99
2023-03-13T08:22:26.846Z,99
2023-03-13T08:23:34.049Z,99
2023-03-13T08:24:41.228Z,99
2023-03-13T08:25:48.383Z,99
2023-03-13T08:26:55.010Z,99
2023-03-13T08:28:02.631Z,99
2023-03-13T08:29:09.079Z,99
2023-03-13T08:30:16.280Z,99
2023-03-13T08:31:23.464Z,100
2023-03-13T08:32:30.118Z,99
2023-03-13T08:33:36.862Z,99
2023-03-13T08:34:43.955Z,99
2023-03-13T08:35:51.261Z,99
2023-03-13T08:36:58.343Z,99
2023-03-13T08:38:05.497Z,99
2023-03-13T08:39:12.095Z,99
2023-03-13T08:40:19.145Z,99
2023-03-13T08:41:26.092Z,99
2023-03-13T08:42:33.329Z,99
2023-03-13T08:43:39.968Z,99
2023-03-13T08:45:54.206Z,99
2023-03-13T08:47:01.080Z,99
2023-03-13T08:48:08.338Z,99
2023-03-13T08:49:14.955Z,99
2023-03-13T08:50:22.065Z,99
2023-03-13T08:51:28.955Z,99
2023-03-13T08:52:36.310Z,99
2023-03-13T08:53:43.895Z,99
2023-03-13T08:54:50.116Z,99
2023-03-13T08:55:57.073Z,99
2023-03-13T08:57:04.219Z,99
2023-03-13T08:58:11.076Z,99
2023-03-13T08:59:18.411Z,99
2023-03-13T09:00:25.006Z,99
2023-03-13T09:01:32.160Z,99
2023-03-13T09:02:39.068Z,99
2023-03-13T09:03:46.185Z,99
2023-03-13T09:04:53.332Z,99
2023-03-13T09:07:07.152Z,99
2023-03-13T09:08:14.006Z,99
2023-03-13T09:09:23.243Z,99
2023-03-13T09:10:27.875Z,99
2023-03-13T09:11:35.008Z,99
2023-03-13T09:12:41.920Z,99
2023-03-13T09:13:49.170Z,99
2023-03-13T09:14:56.345Z,99
2023-03-13T09:16:03.500Z,99
2023-03-13T09:17:09.983Z,99
2023-03-13T09:18:16.950Z,99
2023-03-13T09:19:24.235Z,99
2023-03-13T09:20:31.138Z,99
2023-03-13T09:21:38.740Z,99
2023-03-13T09:22:44.986Z,99
2023-03-13T09:23:52.042Z,99
2023-03-13T09:24:59.655Z,99
2023-03-13T09:26:06.149Z,99
2023-03-13T09:27:13.542Z,99
2023-03-13T09:28:19.979Z,99
2023-03-13T09:29:27.038Z,99
2023-03-13T09:30:34.161Z,99
2023-03-13T09:31:41.161Z,99
2023-03-13T09:32:48.844Z,99
2023-03-13T09:33:54.889Z,99
2023-03-13T09:35:02.128Z,99
2023-03-13T09:36:09.101Z,99
2023-03-13T09:37:16.164Z,99
2023-03-13T09:38:23.314Z,99
2023-03-13T09:39:30.086Z,99
2023-03-13T09:40:37.089Z,99
2023-03-13T09:41:44.198Z,99
2023-03-13T09:42:51.126Z,99
2023-03-13T09:43:58.415Z,99
2023-03-13T09:45:04.861Z,99
2023-03-13T09:46:12.160Z,99
2023-03-13T09:47:19.265Z,99
2023-03-13T09:48:26.204Z,99
2023-03-13T09:49:33.440Z,99
2023-03-13T09:50:40.453Z,99
2023-03-13T09:51:47.233Z,99
2023-03-13T09:52:54.528Z,99
2023-03-13T09:54:01.686Z,99
2023-03-13T09:55:08.440Z,99
2023-03-13T09:56:14.934Z,99
2023-03-13T09:57:22.143Z,99
2023-03-13T09:58:29.101Z,99
2023-03-13T09:59:36.282Z,99
2023-03-13T10:00:43.198Z,99
2023-03-13T10:01:49.912Z,99
2023-03-13T10:02:56.992Z,99
2023-03-13T10:04:04.407Z,99
2023-03-13T10:05:11.453Z,99
2023-03-13T10:06:17.951Z,98
2023-03-13T10:07:24.968Z,98
2023-03-13T10:08:32.027Z,98
2023-03-13T10:10:46.202Z,98
2023-03-13T10:11:52.900Z,98
2023-03-13T10:14:07.161Z,98
2023-03-13T10:15:14.208Z,98
2023-03-13T10:16:21.420Z,98
2023-03-13T10:17:27.898Z,98
2023-03-13T10:18:34.914Z,94
2023-03-13T10:19:42.020Z,94
2023-03-13T10:20:49.072Z,93
2023-03-13T10:21:56.254Z,93
2023-03-13T10:23:02.820Z,93
2023-03-13T10:24:10.017Z,93
2023-03-13T10:25:17.156Z,93
2023-03-13T10:26:24.235Z,93
2023-03-13T10:27:31.396Z,93
2023-03-13T10:28:38.405Z,93
2023-03-13T10:29:45.116Z,93
2023-03-13T10:30:52.313Z,93
2023-03-13T10:31:59.125Z,93
2023-03-13T10:34:12.939Z,92
2023-03-13T10:35:19.967Z,92
2023-03-13T10:36:27.111Z,92
2023-03-13T10:37:34.331Z,92
2023-03-13T10:38:41.393Z,92
2023-03-13T10:39:47.890Z,92
2023-03-13T10:40:54.916Z,92
2023-03-13T10:42:02.246Z,92
2023-03-13T10:43:09.229Z,92
2023-03-13T10:44:16.492Z,92
2023-03-13T10:45:25.213Z,92
2023-03-13T10:46:30.117Z,92
2023-03-13T10:47:37.196Z,92
2023-03-13T10:48:44.345Z,92
2023-03-13T10:49:51.791Z,92
2023-03-13T10:51:01.930Z,92
2023-03-13T10:52:04.944Z,92
2023-03-13T10:53:12.292Z,91
2023-03-13T10:54:19.212Z,92
2023-03-13T10:55:26.233Z,91
2023-03-13T10:56:32.860Z,91
2023-03-13T10:57:40.042Z,91
2023-03-13T10:58:47.458Z,91
2023-03-13T10:59:54.281Z,91
2023-03-13T11:01:01.271Z,91
2023-03-13T11:02:08.100Z,91
2023-03-13T11:03:15.531Z,91
2023-03-13T11:04:22.283Z,91
2023-03-13T11:05:29.269Z,91
2023-03-13T11:06:36.358Z,91
2023-03-13T11:07:42.871Z,91
2023-03-13T11:08:50.029Z,91
2023-03-13T11:09:57.062Z,91
2023-03-13T11:11:04.246Z,91
2023-03-13T11:12:11.376Z,91
2023-03-13T11:13:24.752Z,90
2023-03-13T11:14:25.145Z,90
2023-03-13T11:15:32.094Z,90
2023-03-13T11:16:39.309Z,90
2023-03-13T11:17:46.643Z,89
2023-03-13T11:18:53.131Z,89
2023-03-13T11:20:03.868Z,89
2023-03-13T11:21:17.589Z,89
2023-03-13T11:22:14.447Z,89
2023-03-13T11:23:21.306Z,89
2023-03-13T11:24:28.006Z,89
2023-03-13T11:25:35.086Z,89
2023-03-13T11:26:44.673Z,89
2023-03-13T11:27:49.311Z,89
2023-03-13T11:28:56.566Z,89
2023-03-13T11:30:03.131Z,89
2023-03-13T11:31:10.195Z,89
2023-03-13T11:32:17.252Z,88
2023-03-13T11:33:24.410Z,88
2023-03-13T11:34:30.887Z,88
2023-03-13T11:35:37.881Z,88
2023-03-13T11:36:45.016Z,88
2023-03-13T11:37:52.194Z,88
2023-03-13T11:38:59.228Z,88
2023-03-13T11:40:05.967Z,88
2023-03-13T11:42:20.132Z,88
2023-03-13T11:43:27.227Z,88
2023-03-13T11:44:34.325Z,88
2023-03-13T11:45:40.832Z,88
2023-03-13T11:46:47.924Z,88
2023-03-13T11:47:55.126Z,88
2023-03-13T11:49:02.130Z,88
2023-03-13T11:50:09.638Z,88
2023-03-13T11:51:15.954Z,87
2023-03-13T11:52:22.938Z,87
2023-03-13T11:53:30.158Z,87
2023-03-13T11:54:37.103Z,87
2023-03-13T11:55:44.243Z,87
2023-03-13T11:56:51.438Z,87
2023-03-13T11:57:57.890Z,87
2023-03-13T11:59:05.275Z,87
2023-03-13T12:00:12.283Z,87
2023-03-13T12:01:19.296Z,87
2023-03-13T12:02:26.756Z,87
2023-03-13T12:03:33.036Z,87
2023-03-13T12:04:40.130Z,87
2023-03-13T12:05:47.284Z,87
2023-03-13T12:06:54.260Z,87
2023-03-13T12:08:01.191Z,87
2023-03-13T12:09:08.055Z,87
2023-03-13T12:10:15.336Z,87
2023-03-13T12:11:22.193Z,87
2023-03-13T12:12:29.326Z,87
2023-03-13T12:13:36.026Z,87
2023-03-13T12:14:43.102Z,87
2023-03-13T12:15:50.142Z,87
2023-03-13T12:18:05.044Z,87
2023-03-13T12:19:10.941Z,87
2023-03-13T12:20:18.031Z,87
2023-03-13T12:21:25.077Z,87
2023-03-13T12:22:32.298Z,87
2023-03-13T12:23:39.394Z,88
2023-03-13T12:24:46.074Z,88
2023-03-13T12:25:53.174Z,88
2023-03-13T12:27:00.113Z,88
2023-03-13T12:28:07.377Z,88
2023-03-13T12:29:14.522Z,88
2023-03-13T12:30:21.027Z,87
2023-03-13T12:31:28.040Z,87
2023-03-13T12:32:35.184Z,87
2023-03-13T12:33:42.386Z,87
2023-03-13T12:34:49.549Z,87
2023-03-13T12:35:56.599Z,87
2023-03-13T12:38:10.191Z,87
2023-03-13T12:39:17.234Z,87
2023-03-13T12:40:24.474Z,87
2023-03-13T12:41:31.057Z,86
2023-03-13T12:42:37.954Z,86
2023-03-13T12:43:47.921Z,86
2023-03-13T12:44:52.216Z,86
2023-03-13T12:45:59.577Z,86
2023-03-13T12:47:05.918Z,86
2023-03-13T12:48:13.182Z,86
2023-03-13T12:49:20.084Z,86
2023-03-13T12:50:27.259Z,86
2023-03-13T12:51:34.339Z,86
2023-03-13T12:52:40.869Z,86
2023-03-13T12:53:48.222Z,86
2023-03-13T12:54:55.248Z,86
2023-03-13T12:56:02.314Z,86
2023-03-13T12:57:09.353Z,86
2023-03-13T12:58:16.032Z,86
2023-03-13T12:59:23.148Z,85
2023-03-13T13:00:30.118Z,85
2023-03-13T13:01:37.291Z,85
2023-03-13T13:02:44.358Z,85
2023-03-13T13:03:51.186Z,85
2023-03-13T13:04:58.000Z,85
2023-03-13T13:06:05.219Z,85
2023-03-13T13:07:12.367Z,85
2023-03-13T13:08:19.301Z,85
2023-03-13T13:10:33.082Z,84
2023-03-13T13:11:40.198Z,84
2023-03-13T13:12:47.298Z,84
2023-03-13T13:13:54.389Z,84
2023-03-13T13:15:01.013Z,84
2023-03-13T13:16:08.218Z,83
2023-03-13T13:17:16.459Z,83
2023-03-13T13:19:29.577Z,83
2023-03-13T13:21:43.144Z,82
2023-03-13T13:22:52.597Z,82
2023-03-13T13:23:57.289Z,82
2023-03-13T13:25:04.484Z,82
2023-03-13T13:26:11.027Z,82
2023-03-13T13:27:18.147Z,82
2023-03-13T13:28:25.244Z,82
2023-03-13T13:29:32.489Z,81
2023-03-13T13:30:39.061Z,81
2023-03-13T13:31:46.344Z,81
2023-03-13T13:32:53.297Z,81
2023-03-13T13:34:00.330Z,80
2023-03-13T13:35:07.385Z,80
2023-03-13T13:36:14.013Z,80
2023-03-13T13:37:21.058Z,80
2023-03-13T13:38:28.040Z,80
2023-03-13T13:39:35.933Z,80
2023-03-13T13:40:42.359Z,80
2023-03-13T13:41:49.014Z,80
2023-03-13T13:42:56.055Z,80
2023-03-13T13:44:03.083Z,80
2023-03-13T13:45:10.147Z,80
2023-03-13T13:46:18.094Z,80
2023-03-13T13:47:24.019Z,80
2023-03-13T13:48:30.939Z,80
2023-03-13T13:49:38.107Z,80
2023-03-13T13:50:45.250Z,79
2023-03-13T13:51:52.296Z,79
2023-03-13T13:52:59.082Z,79
2023-03-13T13:54:06.050Z,79
2023-03-13T13:55:13.313Z,79
2023-03-13T13:56:20.305Z,78
2023-03-13T13:57:27.430Z,78
2023-03-13T13:58:34.006Z,78
2023-03-13T13:59:41.024Z,78
2023-03-13T14:00:48.163Z,78
2023-03-13T14:01:55.341Z,78
2023-03-13T14:03:02.306Z,77
2023-03-13T14:04:09.077Z,77
2023-03-13T14:05:16.119Z,77
2023-03-13T14:06:23.372Z,77
2023-03-13T14:07:30.180Z,77
2023-03-13T14:08:37.446Z,77
2023-03-13T14:09:43.866Z,77
2023-03-13T14:10:50.985Z,76
2023-03-13T14:11:58.267Z,76
2023-03-13T14:13:05.211Z,76
2023-03-13T14:14:12.528Z,76
2023-03-13T14:15:18.971Z,76
2023-03-13T14:16:26.092Z,76
2023-03-13T14:17:33.258Z,76
2023-03-13T14:18:40.277Z,76
2023-03-13T14:19:47.325Z,76
2023-03-13T14:20:54.041Z,75
2023-03-13T14:22:01.100Z,75
2023-03-13T14:23:08.206Z,75
2023-03-13T14:25:22.496Z,75
2023-03-13T14:26:28.919Z,75
2023-03-13T14:27:36.049Z,75
2023-03-13T14:28:43.211Z,75
2023-03-13T14:29:50.331Z,75
2023-03-13T14:30:59.979Z,75
2023-03-13T14:32:04.117Z,74
2023-03-13T14:33:11.126Z,74
2023-03-13T14:34:18.119Z,74
2023-03-13T14:35:25.354Z,74
2023-03-13T14:36:32.460Z,74
2023-03-13T14:38:46.197Z,74
2023-03-13T14:39:53.336Z,74
2023-03-13T14:41:00.339Z,74
2023-03-13T14:42:07.516Z,73
2023-03-13T14:43:14.542Z,73
2023-03-13T14:44:21.167Z,73
2023-03-13T14:45:28.213Z,73
2023-03-13T14:46:35.353Z,73
2023-03-13T14:47:42.496Z,73
2023-03-13T14:48:49.093Z,72
2023-03-13T14:49:56.078Z,72
2023-03-13T14:51:14.722Z,72
2023-03-13T14:52:10.260Z,72
2023-03-13T14:53:17.457Z,72
2023-03-13T14:54:24.119Z,72
2023-03-13T14:55:31.115Z,72
2023-03-13T14:56:38.196Z,72
2023-03-13T14:57:45.562Z,72
2023-03-13T14:58:51.900Z,72
2023-03-13T14:59:58.999Z,72
2023-03-13T15:01:06.258Z,72
2023-03-13T15:02:13.203Z,72
2023-03-13T15:03:20.390Z,71
2023-03-13T15:04:27.546Z,71
2023-03-13T15:05:34.090Z,71
2023-03-13T15:06:41.175Z,71
2023-03-13T15:07:48.218Z,71
2023-03-13T15:08:55.477Z,71
2023-03-13T15:10:02.460Z,71
2023-03-13T15:11:09.026Z,71
2023-03-13T15:12:16.649Z,71
2023-03-13T15:13:23.455Z,71
2023-03-13T15:14:30.839Z,71
2023-03-13T15:15:37.466Z,71
2023-03-13T15:16:44.239Z,71
2023-03-13T15:17:51.146Z,71
2023-03-13T15:18:58.205Z,71
2023-03-13T15:20:06.227Z,71
2023-03-13T15:21:12.514Z,71
2023-03-13T15:22:19.086Z,71
2023-03-13T15:23:26.199Z,71
2023-03-13T15:24:33.374Z,71
2023-03-13T15:25:40.382Z,71
2023-03-13T15:26:48.985Z,71
2023-03-13T15:29:01.267Z,71
2023-03-13T15:30:08.206Z,71
2023-03-13T15:31:15.582Z,71
2023-03-13T15:32:22.042Z,71
2023-03-13T15:33:29.109Z,71
2023-03-13T15:34:36.245Z,71
2023-03-13T15:35:43.409Z,71
2023-03-13T15:36:50.371Z,71
2023-03-13T15:37:56.966Z,71
2023-03-13T15:39:04.135Z,71
2023-03-13T15:40:11.157Z,71
2023-03-13T15:41:18.200Z,71
2023-03-13T15:42:25.537Z,71
2023-03-13T15:43:31.920Z,71
2023-03-13T15:44:39.010Z,71
2023-03-13T15:45:46.362Z,71
2023-03-13T15:46:53.897Z,71
2023-03-13T15:48:00.333Z,71
2023-03-13T15:49:07.052Z,71
2023-03-13T15:50:14.226Z,70
2023-03-13T15:51:21.407Z,70
2023-03-13T15:52:28.412Z,70
2023-03-13T15:53:35.476Z,70
2023-03-13T15:54:42.081Z,70
2023-03-13T15:55:49.149Z,70
2023-03-13T15:56:56.286Z,70
2023-03-13T15:58:03.331Z,70
2023-03-13T15:59:10.339Z,69
2023-03-13T16:00:16.921Z,69
2023-03-13T16:01:24.204Z,69
2023-03-13T16:02:31.150Z,69
2023-03-13T16:03:38.241Z,69
2023-03-13T16:04:45.635Z,69
2023-03-13T16:06:59.232Z,69
2023-03-13T16:08:06.241Z,69
2023-03-13T16:09:13.517Z,69
2023-03-13T16:10:21.619Z,69
2023-03-13T16:11:26.979Z,69
2023-03-13T16:12:34.192Z,69
2023-03-13T16:13:41.377Z,69